Accueil
Images satellite Prévisions 15 joursClimatMétéo marine Cyclones Foudre AéroportsFAQ Actualités A propos
Météo : Europe Afrique Amérique du Nord Amérique du Sud Asie Australie-Océanie Autres
Langues Contact

Florennes, Belgique

Base aérienne

latitude: 50-14N, longitude: 004-39E, altitude: 279 m


METAR: EBFS 201655Z 11011KT 9999 FEW036 BKN060 16/08 Q1004 BLU
short-TAF: EBFS 201541Z 2019/2107 15006KT 9999 FEW030 SCT050 BKN100 TEMPO 2019/2100 8000 -SHRA SCT025TCU BKN050 BECMG 2101/2103 07005KT BY EBWM
long-TAF: EBFS 201541Z 2019/2107 15006KT 9999 FEW030 SCT050 BKN100 TEMPO 2019/2100 8000 -SHRA SCT025TCU BKN050 BECMG 2101/2103 07005KT BY EBWM

Heure: 19:27 (17:27 UTC)

Observation

Le bulletin a été fait il y a 32 minutes, à 16:55 UTC  
Vent 11 kt de est/sud-est
Température 16°C
Humidité 59%
Pression 1004 hPa
Visibilité 10 km ou plus
Quelques nuages à une hauteur de 3600 ft
Nuages fragmentés à une hauteur de 6000 ft

Changer d'unités

Prévision

Le bulletin a été fait il y a 1 heure et 40 minutes, à 15:47 UTC  
Prévision valable du 20 à 19 UTC au 21 à 07 UTC
Vent 06 kt de sud/sud-est
Visibilité 10 km ou plus
Quelques nuages à une hauteur de 3000 ft
Nuages épars à une hauteur de 5000 ft
Nuages fragmentés à une hauteur de 10000 ft
Temporairement
du 20 à 19 UTC au 21 à 00 UTC
Visibilité 8000 m
Nuages épars à une hauteur de 2500 ft , Cumulus congestus.
Nuages fragmentés à une hauteur de 5000 ft
faible averses de pluie
Evoluant progressivement
du 21 à 01 UTC au 21 à 03 UTC
Vent 05 kt de est/nord-est

Prévision

Le bulletin a été fait il y a 1 heure et 39 minutes, à 15:48 UTC  
Prévision valable du 20 à 19 UTC au 21 à 07 UTC
Vent 06 kt de sud/sud-est
Visibilité 10 km ou plus
Quelques nuages à une hauteur de 3000 ft
Nuages épars à une hauteur de 5000 ft
Nuages fragmentés à une hauteur de 10000 ft
Temporairement
du 20 à 19 UTC au 21 à 00 UTC
Visibilité 8000 m
Nuages épars à une hauteur de 2500 ft , Cumulus congestus.
Nuages fragmentés à une hauteur de 5000 ft
faible averses de pluie
Evoluant progressivement
du 21 à 01 UTC au 21 à 03 UTC
Vent 05 kt de est/nord-est
Les informations qui figurent sur ce site font l'objet d'une clause de non-responsabilité
Météo : Europe Afrique Amérique du Nord Amérique du Sud Asie Australie-Océanie Autres
Images satellite Prévisions 15 joursClimatMétéo marine Cyclones Foudre AéroportsFAQ Langues Contact Actualités A propos